CheckWX is a tool to help pilots better visualize weather data.  It is not intended as a substitute for an official pre-flight weather briefing.

18:04:25 UTC

EGVA METAR
RAF Fairford Airport
Fairford, United Kingdom
Current

1 hour ago

EGVA 241656Z AUTO 19011G20KT 9999 CLR 13/08 A2935 RMK AO2 SLP943 T01290078 VISNO RWY27 $
Observed
Apr-24 @ 16:56 UTC
Wind
  • 190° at 11 KTS
  • Gusting to 20 KTS
Visibility
10,000+ meters
Flight Rules
VFR
Cloud Levels
  • Clear skies
Temperature
13°C / 55°F
Dewpoint
C / 46°F
Humidity
72%
Altimeter
29.35" Hg
Pressure
993.92 hPa
Previous

2 hours ago

EGVA 241556Z AUTO 21012KT 9999 FEW100 12/07 A2934 RMK AO2 SLP939 T01160069 VISNO RWY27 $
Observed
Apr-24 @ 15:56 UTC
Wind
  • 210° at 12 KTS
Visibility
10,000+ meters
Flight Rules
VFR
Cloud Levels
  • Few at 10,000' AGL
Temperature
12°C / 54°F
Dewpoint
C / 45°F
Humidity
72%
Altimeter
29.34" Hg
Pressure
993.52 hPa
Previous

2 hours ago

EGVA 241536Z AUTO 21014G19KT 9999 SCT029 12/08 A2933 RMK AO2 SLP936 VISNO RWY27 $
Observed
Apr-24 @ 15:36 UTC
Wind
  • 210° at 14 KTS
  • Gusting to 19 KTS
Visibility
10,000+ meters
Flight Rules
VFR
Cloud Levels
  • Scattered at 2,900' AGL
Temperature
12°C / 54°F
Dewpoint
C / 46°F
Humidity
77%
Altimeter
29.33" Hg
Pressure
993.22 hPa